Time;durP1;ratioP1;P1;durP2;ratioP2;P2;SDS_P1;SDS_P2;PMS_P1;PMS_P2;Temp;Humidity;BMP_temperature;BMP_pressure;BME280_temperature;BME280_humidity;BME280_pressure;Samples;Min_cycle;Max_cycle;Signal;HPM_P1;HPM_P2
2023/01/12 00:01:48;;;;;;;12.20;2.65;;;;;;;8.14;100.00;100971.63;5015778;28;20479;-71
2023/01/12 00:04:14;;;;;;;6.93;2.50;;;;;;;8.12;100.00;100968.06;5015854;28;20022;-70
2023/01/12 00:06:40;;;;;;;7.20;2.35;;;;;;;8.13;100.00;100968.94;5015937;28;20021;-69
2023/01/12 00:09:06;;;;;;;8.77;2.67;;;;;;;8.18;100.00;100967.31;5015525;28;20026;-70
2023/01/12 00:11:33;;;;;;;10.80;2.58;;;;;;;8.20;100.00;100966.50;5015569;28;20022;-70
2023/01/12 00:13:59;;;;;;;8.00;2.50;;;;;;;8.20;100.00;100960.34;5015661;28;20101;-70
2023/01/12 00:16:34;;;;;;;13.57;2.83;;;;;;;8.18;100.00;100947.16;5015655;28;20538;-70
2023/01/12 00:19:09;;;;;;;12.43;2.78;;;;;;;8.20;100.00;100947.19;5015579;28;20049;-69
2023/01/12 00:22:04;;;;;;;10.25;2.20;;;;;;;8.21;100.00;100954.22;4997928;28;20085;-71
2023/01/12 00:24:35;;;;;;;11.27;2.85;;;;;;;8.20;100.00;100955.97;5011448;28;20038;-70
2023/01/12 00:27:03;;;;;;;14.13;3.22;;;;;;;8.20;100.00;100942.81;5015400;28;20431;-69
2023/01/12 00:29:28;;;;;;;10.45;2.55;;;;;;;8.27;100.00;100944.72;5015261;28;20022;-70
2023/01/12 00:31:55;;;;;;;12.48;2.70;;;;;;;8.25;100.00;100946.41;5015153;28;20109;-70
2023/01/12 00:34:22;;;;;;;14.18;3.40;;;;;;;8.25;100.00;100942.91;5014369;28;20038;-69
2023/01/12 00:36:47;;;;;;;11.88;2.88;;;;;;;8.26;100.00;100929.78;5014942;28;20036;-70
2023/01/12 00:39:13;;;;;;;10.45;2.55;;;;;;;8.27;100.00;100925.41;5015473;28;20411;-72
2023/01/12 00:47:10;;;;;;;13.52;2.70;;;;;;;8.27;100.00;100914.88;5015207;28;20045;-69
2023/01/12 00:49:36;;;;;;;11.80;2.75;;;;;;;8.27;100.00;100902.59;5014871;28;20026;-70
2023/01/12 00:52:04;;;;;;;14.82;2.97;;;;;;;8.33;100.00;100920.25;5014968;28;20080;-69
2023/01/12 00:54:31;;;;;;;14.98;2.90;;;;;;;8.30;100.00;100922.81;5014845;28;20056;-69
2023/01/12 00:56:56;;;;;;;13.10;3.00;;;;;;;8.29;100.00;100910.53;5015112;28;20476;-69
2023/01/12 00:59:22;;;;;;;11.25;3.05;;;;;;;8.30;100.00;100904.41;5014847;28;20029;-69
2023/01/12 01:01:47;;;;;;;9.98;2.67;;;;;;;8.31;100.00;100914.09;5014716;28;20030;-70
2023/01/12 01:04:13;;;;;;;13.30;2.95;;;;;;;8.34;100.00;100897.44;5014743;28;20045;-70
2023/01/12 01:06:39;;;;;;;10.60;2.70;;;;;;;8.29;100.00;100894.72;5014912;28;20549;-70
2023/01/12 01:09:05;;;;;;;13.50;3.40;;;;;;;8.31;100.00;100890.41;5014337;28;20049;-70
2023/01/12 01:11:30;;;;;;;17.58;2.92;;;;;;;8.26;100.00;100879.78;5014474;28;20075;-70
2023/01/12 01:13:56;;;;;;;12.77;3.20;;;;;;;8.28;100.00;100864.00;5014546;28;20018;-69
2023/01/12 01:16:21;;;;;;;12.68;3.10;;;;;;;8.28;100.00;100880.69;5014694;28;20486;-70
2023/01/12 01:18:47;;;;;;;16.35;3.30;;;;;;;8.31;100.00;100874.59;5014624;28;20084;-70
2023/01/12 01:21:13;;;;;;;12.40;2.95;;;;;;;8.26;100.00;100878.84;5014465;28;20046;-70
2023/01/12 01:23:40;;;;;;;13.05;3.50;;;;;;;8.31;100.00;100871.97;5014607;28;20018;-70
2023/01/12 01:26:10;;;;;;;14.63;3.30;;;;;;;8.32;100.00;100865.84;5014327;28;20049;-69
2023/01/12 01:28:36;;;;;;;11.68;3.05;;;;;;;8.30;100.00;100864.91;5014239;28;20029;-69
2023/01/12 01:31:07;;;;;;;15.02;3.00;;;;;;;8.28;100.00;100867.53;5014113;28;20155;-69
2023/01/12 01:33:33;;;;;;;17.00;4.18;;;;;;;8.29;100.00;100866.66;5014315;28;20032;-69
2023/01/12 01:35:59;;;;;;;15.98;3.45;;;;;;;8.26;100.00;100858.72;5013883;28;20418;-70
2023/01/12 01:38:24;;;;;;;16.98;3.08;;;;;;;8.30;100.00;100857.00;5013848;28;20444;-70
2023/01/12 01:40:50;;;;;;;17.58;3.83;;;;;;;8.31;100.00;100856.16;5014254;28;20037;-70
2023/01/12 01:43:18;;;;;;;16.90;3.92;;;;;;;8.30;100.00;100859.63;5014231;28;20452;-69
2023/01/12 01:45:49;;;;;;;17.10;3.55;;;;;;;8.29;100.00;100858.75;5013862;28;20050;-69
2023/01/12 01:48:16;;;;;;;13.40;3.13;;;;;;;8.29;100.00;100861.38;5014014;28;20065;-69
2023/01/12 01:50:53;;;;;;;21.88;3.72;;;;;;;8.30;100.00;100859.63;5013776;28;20037;-69
2023/01/12 01:53:24;;;;;;;15.25;3.25;;;;;;;8.28;100.00;100850.84;5014002;28;20033;-69
2023/01/12 01:55:53;;;;;;;18.27;3.45;;;;;;;8.28;100.00;100835.94;5013734;28;20033;-69
2023/01/12 01:58:27;;;;;;;22.45;3.78;;;;;;;8.29;100.00;100836.81;5014089;28;20450;-68
2023/01/12 02:00:53;;;;;;;19.52;3.38;;;;;;;8.28;100.00;100830.66;5013841;28;20033;-69
2023/01/12 02:03:19;;;;;;;16.77;3.58;;;;;;;8.28;100.00;100813.97;5013670;28;20384;-69
2023/01/12 02:05:47;;;;;;;21.65;3.53;;;;;;;8.27;100.00;100815.72;5013896;28;20021;-69
2023/01/12 02:08:38;;;;;;;16.05;3.25;;;;;;;8.28;100.00;100812.22;5013549;28;20026;-69
2023/01/12 02:16:19;;;;;;;15.13;3.20;;;;;;;8.29;100.00;100814.00;5013498;28;20030;-70
2023/01/12 02:16:58;;;;;;;17.33;3.53;;;;;;;8.32;100.00;100821.09;5013732;28;20482;-69
2023/01/12 02:19:42;;;;;;;14.68;3.28;;;;;;;8.37;100.00;100803.66;5002682;28;20050;-69
2023/01/12 02:22:28;;;;;;;17.77;3.45;;;;;;;8.32;100.00;100796.50;5013353;28;20545;-70
2023/01/12 02:25:35;;;;;;;20.92;3.47;;;;;;;8.29;100.00;100786.78;5013331;28;20096;-70
2023/01/12 02:28:15;;;;;;;20.42;3.45;;;;;;;8.38;100.00;100807.19;5013382;28;20029;-70
2023/01/12 02:31:00;;;;;;;17.85;3.65;;;;;;;8.37;100.00;100806.28;5013173;28;20050;-70
2023/01/12 02:33:31;;;;;;;12.95;3.15;;;;;;;8.38;100.00;100807.19;5013154;28;20483;-70
2023/01/12 02:36:08;;;;;;;15.00;2.97;;;;;;;8.37;100.00;100800.16;5013095;28;20050;-70
2023/01/12 02:38:46;;;;;;;14.85;3.40;;;;;;;8.43;100.00;100773.91;5013315;28;20109;-69
2023/01/12 02:42:39;;;;;;;14.98;3.65;;;;;;;8.43;100.00;100772.16;5013193;28;20056;-70
2023/01/12 02:44:20;;;;;;;14.68;3.00;;;;;;;8.39;100.00;100775.59;5012875;28;20088;-69
2023/01/12 02:46:49;;;;;;;13.93;3.15;;;;;;;8.43;100.00;100764.25;4995721;28;20123;-70
2023/01/12 02:49:20;;;;;;;20.33;4.03;;;;;;;8.44;100.00;100783.59;5013163;28;20071;-69
2023/01/12 02:51:51;;;;;;;17.75;3.05;;;;;;;8.42;100.00;100762.50;5013073;28;20087;-71
2023/01/12 02:54:20;;;;;;;20.58;3.35;;;;;;;8.41;100.00;100759.84;5013279;28;20033;-70
2023/01/12 02:56:49;;;;;;;15.52;3.05;;;;;;;8.50;100.00;100767.91;5013024;28;20026;-70
2023/01/12 02:59:28;;;;;;;16.48;3.38;;;;;;;8.55;100.00;100754.81;5015832;28;20030;-70
2023/01/12 03:02:18;;;;;;;21.23;3.35;;;;;;;8.49;100.00;100752.97;5017073;28;20057;-70
2023/01/12 03:04:43;;;;;;;19.23;2.90;;;;;;;8.48;100.00;100740.69;5017188;28;20041;-70
2023/01/12 03:07:27;;;;;;;20.95;3.53;;;;;;;8.48;100.00;100738.03;5016636;28;20030;-69
2023/01/12 03:10:31;;;;;;;13.65;2.95;;;;;;;8.49;100.00;100735.44;5016839;28;20077;-70
2023/01/12 03:12:58;;;;;;;11.85;2.72;;;;;;;8.45;100.00;100714.28;5001280;28;20041;-70
2023/01/12 03:15:27;;;;;;;12.38;2.75;;;;;;;8.43;100.00;100700.19;5016771;28;20034;-70
2023/01/12 03:18:04;;;;;;;15.60;2.95;;;;;;;8.44;100.00;100705.50;5016645;28;20029;-69
2023/01/12 03:20:33;;;;;;;14.43;2.85;;;;;;;8.44;100.00;100699.34;5016756;28;20559;-70
2023/01/12 03:23:09;;;;;;;21.42;2.55;;;;;;;8.46;100.00;100692.34;5016659;28;20038;-70
2023/01/12 03:25:38;;;;;;;13.40;3.05;;;;;;;8.46;100.00;100693.22;5016621;28;20053;-70
2023/01/12 03:28:07;;;;;;;10.70;2.70;;;;;;;8.50;100.00;100686.28;5016496;28;20026;-70
2023/01/12 03:30:37;;;;;;;17.58;3.92;;;;;;;8.45;100.00;100656.34;5016380;28;20025;-69
2023/01/12 03:33:05;;;;;;;15.93;3.15;;;;;;;8.46;100.00;100679.19;5016503;28;20434;-70
2023/01/12 03:35:47;;;;;;;15.02;3.20;;;;;;;8.50;100.00;100700.31;5016249;28;20046;-69
2023/01/12 03:38:18;;;;;;;;;;;;;;;8.50;100.00;100666.09;5016681;28;20049;-69
2023/01/12 03:40:52;;;;;;;14.10;3.08;;;;;;;8.49;100.00;100656.41;5016633;28;19945;-68
2023/01/12 03:43:29;;;;;;;14.57;3.25;;;;;;;8.47;100.00;100652.88;5016649;28;20113;-68
2023/01/12 03:46:01;;;;;;;12.85;3.05;;;;;;;8.54;100.00;100643.31;5016266;28;20049;-70
2023/01/12 03:48:41;;;;;;;7.18;2.30;;;;;;;8.48;100.00;100659.03;5016196;28;20490;-70
2023/01/12 03:51:15;;;;;;;11.80;3.05;;;;;;;8.49;100.00;100660.81;5016118;28;20026;-68
2023/01/12 03:53:43;;;;;;;15.85;2.85;;;;;;;8.45;100.00;100630.03;5016111;28;20038;-69
2023/01/12 03:56:11;;;;;;;13.45;2.90;;;;;;;8.48;100.00;100627.44;4998539;28;20025;-69
2023/01/12 03:58:37;;;;;;;7.65;2.47;;;;;;;8.49;100.00;100610.78;5016116;28;20072;-69
2023/01/12 04:01:04;;;;;;;13.82;2.90;;;;;;;8.45;100.00;100595.78;5007883;28;20026;-68
2023/01/12 04:03:29;;;;;;;15.85;3.15;;;;;;;8.47;100.00;100588.78;4998339;28;20365;-69
2023/01/12 04:05:55;;;;;;;10.70;2.88;;;;;;;8.49;100.00;100587.97;5015864;28;20071;-69
2023/01/12 04:08:21;;;;;;;10.65;2.80;;;;;;;8.49;100.00;100593.22;5015722;28;20022;-69
2023/01/12 04:10:46;;;;;;;13.10;3.00;;;;;;;8.47;100.00;100567.72;5015510;28;20033;-69
2023/01/12 04:13:12;;;;;;;17.15;2.85;;;;;;;8.47;100.00;100581.75;5015740;28;20033;-69
2023/01/12 04:15:41;;;;;;;11.65;2.80;;;;;;;8.49;100.00;100561.63;5015679;28;20087;-69
2023/01/12 04:18:08;;;;;;;14.40;3.15;;;;;;;8.51;100.00;100566.91;5015900;28;20057;-68
2023/01/12 04:20:34;;;;;;;10.90;2.83;;;;;;;8.47;100.00;100533.50;5015879;28;20453;-68
2023/01/12 04:22:59;;;;;;;16.55;3.15;;;;;;;8.46;100.00;100543.13;5015540;28;20100;-68
2023/01/12 04:25:24;;;;;;;15.35;3.38;;;;;;;8.44;100.00;100536.09;4998109;28;20061;-68
2023/01/12 04:27:52;;;;;;;10.50;2.60;;;;;;;8.44;100.00;100539.63;5015550;28;20026;-68
2023/01/12 04:30:22;;;;;;;10.60;3.10;;;;;;;8.45;100.00;100527.34;5015364;28;20083;-68
2023/01/12 04:32:48;;;;;;;13.30;2.95;;;;;;;8.44;100.00;100530.84;5015668;28;20037;-69
2023/01/12 04:35:15;;;;;;;15.65;3.17;;;;;;;8.43;100.00;100507.97;5015111;28;20057;-69
2023/01/12 04:37:41;;;;;;;12.30;2.80;;;;;;;8.40;100.00;100500.06;5015410;28;20084;-68
2023/01/12 04:40:09;;;;;;;10.65;2.58;;;;;;;8.41;100.00;100483.41;5015471;28;20026;-67
2023/01/12 04:45:19;;;;;;;12.63;2.60;;;;;;;8.40;100.00;100490.41;5015583;28;20049;-68
2023/01/12 04:47:44;;;;;;;11.77;2.80;;;;;;;8.39;100.00;100499.16;5015027;28;20033;-68
2023/01/12 04:50:10;;;;;;;10.10;2.60;;;;;;;8.43;100.00;100463.22;5014952;28;20028;-67
2023/01/12 04:52:35;;;;;;;15.20;2.78;;;;;;;8.43;100.00;100460.59;5014942;28;20104;-68
2023/01/12 04:55:01;;;;;;;12.82;2.83;;;;;;;8.41;100.00;100457.06;5014922;28;20053;-67
2023/01/12 04:57:27;;;;;;;12.18;3.03;;;;;;;8.42;100.00;100480.78;5014987;28;20109;-67
2023/01/12 04:59:52;;;;;;;15.23;3.03;;;;;;;8.42;100.00;100454.44;5015000;28;20484;-68
2023/01/12 05:02:17;;;;;;;12.40;2.92;;;;;;;8.40;100.00;100448.28;5015026;28;20022;-68
2023/01/12 05:04:45;;;;;;;9.43;2.28;;;;;;;8.40;100.00;100442.13;5014816;28;20109;-68
2023/01/12 05:07:11;;;;;;;12.77;2.65;;;;;;;8.40;100.00;100424.59;5014543;28;20029;-68
2023/01/12 05:12:20;;;;;;;14.40;2.90;;;;;;;8.43;100.00;100460.59;5014987;28;20049;-68
2023/01/12 05:14:45;;;;;;;10.15;2.40;;;;;;;8.43;100.00;100427.25;5014910;28;20037;-69
2023/01/12 05:17:10;;;;;;;12.98;2.88;;;;;;;8.46;100.00;100429.03;5014517;28;20034;-68
2023/01/12 05:19:36;;;;;;;14.77;2.58;;;;;;;8.45;100.00;100433.44;5014557;28;20494;-68
2023/01/12 05:22:01;;;;;;;12.98;2.97;;;;;;;8.46;100.00;100423.78;5013803;28;20026;-68
2023/01/12 05:24:27;;;;;;;10.52;2.60;;;;;;;8.45;100.00;100427.28;5014402;28;20093;-68
2023/01/12 05:26:52;;;;;;;11.10;2.70;;;;;;;8.46;100.00;100450.09;5014507;28;20022;-68
2023/01/12 05:29:17;;;;;;;13.82;2.83;;;;;;;8.50;100.00;100467.72;5014562;28;20534;-67
2023/01/12 05:31:43;;;;;;;11.52;2.70;;;;;;;8.50;100.00;100450.16;5014405;28;20115;-67
2023/01/12 05:34:08;;;;;;;7.57;2.28;;;;;;;8.46;100.00;100445.72;5013996;28;20104;-67
2023/01/12 05:36:33;;;;;;;8.88;2.42;;;;;;;8.47;100.00;100439.56;5014240;28;20030;-67
2023/01/12 05:38:59;;;;;;;9.32;2.47;;;;;;;8.46;100.00;100422.03;5014114;28;20367;-67
2023/01/12 05:41:24;;;;;;;7.18;2.20;;;;;;;8.48;100.00;100444.00;5014075;28;20141;-68
2023/01/12 05:43:50;;;;;;;9.68;2.70;;;;;;;8.47;100.00;100441.34;5014049;28;20084;-66
2023/01/12 05:46:20;;;;;;;13.60;2.80;;;;;;;8.46;100.00;100427.28;5013857;28;20026;-67
2023/01/12 05:48:45;;;;;;;7.80;2.30;;;;;;;8.47;100.00;100452.75;5013931;28;20030;-67
2023/01/12 05:51:12;;;;;;;14.48;2.92;;;;;;;8.48;100.00;100422.06;5014059;28;20033;-67
2023/01/12 05:53:39;;;;;;;5.32;2.03;;;;;;;8.49;100.00;100421.19;5013856;28;20026;-67
2023/01/12 05:56:21;;;;;;;8.68;2.30;;;;;;;8.43;100.00;100416.72;5013867;28;20026;-67
2023/01/12 05:58:49;;;;;;;13.82;2.40;;;;;;;8.46;100.00;100408.84;5013863;28;20026;-68
2023/01/12 06:01:14;;;;;;;8.02;2.60;;;;;;;8.45;100.00;100428.16;5013963;28;20125;-68
2023/01/12 06:03:40;;;;;;;11.55;2.65;;;;;;;8.43;100.00;100407.94;5013606;28;20065;-67
2023/01/12 06:06:05;;;;;;;7.28;2.80;;;;;;;8.46;100.00;100405.34;5013700;28;20512;-68
2023/01/12 06:08:31;;;;;;;10.07;2.15;;;;;;;8.48;100.00;100415.03;5013658;28;20087;-67
2023/01/12 06:11:01;;;;;;;10.13;2.60;;;;;;;8.51;100.00;100425.59;5013579;28;20037;-67
2023/01/12 06:16:10;;;;;;;9.80;2.15;;;;;;;8.55;100.00;100409.84;5013843;28;20123;-68
2023/01/12 06:18:37;;;;;;;7.82;2.00;;;;;;;8.57;100.00;100416.03;5013490;28;20412;-68
2023/01/12 06:21:04;;;;;;;6.05;2.00;;;;;;;8.58;100.00;100423.06;5013515;28;20034;-67
2023/01/12 06:23:30;;;;;;;7.22;2.55;;;;;;;8.63;100.00;100416.06;5013296;28;20037;-68
2023/01/12 06:25:58;;;;;;;8.63;2.30;;;;;;;8.58;100.00;100405.50;5013301;28;20022;-67
2023/01/12 06:28:24;;;;;;;7.60;2.08;;;;;;;8.64;100.00;100412.56;5013330;28;20037;-68
2023/01/12 06:30:57;;;;;;;9.93;2.28;;;;;;;8.63;100.00;100416.97;5013198;28;20029;-67
2023/01/12 06:33:23;;;;;;;4.82;2.13;;;;;;;8.63;100.00;100418.72;5013677;28;20030;-67
2023/01/12 06:35:49;;;;;;;5.93;1.77;;;;;;;8.66;100.00;100422.28;5013086;28;20565;-68
2023/01/12 06:38:14;;;;;;;3.60;1.63;;;;;;;8.71;100.00;100414.41;5013070;28;20029;-68
2023/01/12 06:40:40;;;;;;;6.40;2.10;;;;;;;8.73;100.00;100432.00;5013200;28;20056;-68
2023/01/12 06:43:05;;;;;;;5.20;1.80;;;;;;;8.72;100.00;100411.78;5013232;28;20380;-68
2023/01/12 06:45:30;;;;;;;7.80;2.20;;;;;;;8.73;100.00;100426.72;4995446;28;20121;-67
2023/01/12 06:47:56;;;;;;;9.90;2.13;;;;;;;8.74;100.00;100406.56;5013156;28;20019;-67
2023/01/12 06:50:21;;;;;;;3.70;1.70;;;;;;;8.74;100.00;100423.25;5012986;28;20033;-67
2023/01/12 06:52:47;;;;;;;4.38;1.90;;;;;;;8.78;100.00;100437.34;5013040;28;20034;-67
2023/01/12 06:55:13;;;;;;;7.40;1.95;;;;;;;8.83;100.00;100424.22;4998886;28;20033;-68
2023/01/12 06:57:39;;;;;;;7.70;1.83;;;;;;;8.84;100.00;100429.50;4993421;28;20033;-67
2023/01/12 07:00:05;;;;;;;6.28;2.00;;;;;;;8.83;100.00;100408.41;4993449;28;20049;-67
2023/01/12 07:02:30;;;;;;;6.38;1.90;;;;;;;8.82;100.00;100411.88;4993357;28;20023;-68
2023/01/12 07:04:56;;;;;;;4.00;1.73;;;;;;;8.85;100.00;100412.81;4993330;28;20058;-68
2023/01/12 07:07:21;;;;;;;6.45;2.00;;;;;;;8.83;100.00;100417.19;4993096;28;20109;-67
2023/01/12 07:09:46;;;;;;;6.00;1.80;;;;;;;8.82;100.00;100423.31;4993528;28;20030;-66
2023/01/12 07:12:12;;;;;;;5.03;1.75;;;;;;;8.82;100.00;100418.03;4993569;28;20030;-67
2023/01/12 07:14:37;;;;;;;7.45;2.08;;;;;;;8.86;100.00;100411.94;4992026;28;20054;-68
2023/01/12 07:17:03;;;;;;;4.43;1.60;;;;;;;8.87;100.00;100418.13;4993559;28;20062;-67
2023/01/12 07:19:28;;;;;;;6.22;2.03;;;;;;;8.92;100.00;100409.38;4993309;28;20090;-69
2023/01/12 07:21:54;;;;;;;3.70;1.80;;;;;;;8.89;100.00;100437.44;4993517;28;20050;-68
2023/01/12 07:24:19;;;;;;;5.10;1.65;;;;;;;8.92;100.00;100430.47;4993124;28;20054;-67
2023/01/12 07:26:48;;;;;;;5.50;1.85;;;;;;;8.90;100.00;100429.53;4993123;28;20026;-68
2023/01/12 07:29:13;;;;;;;4.55;1.75;;;;;;;8.95;100.00;100432.22;4993191;28;20034;-67
2023/01/12 07:31:39;;;;;;;4.90;1.88;;;;;;;8.93;100.00;100432.22;4993030;28;20082;-68
2023/01/12 07:34:04;;;;;;;4.60;1.85;;;;;;;8.92;100.00;100429.59;4992755;28;20042;-67
2023/01/12 07:36:29;;;;;;;4.55;1.80;;;;;;;8.98;100.00;100427.88;4993279;28;20030;-69
2023/01/12 07:38:55;;;;;;;2.78;1.70;;;;;;;8.96;100.00;100428.75;4992949;28;20022;-68
2023/01/12 07:44:04;;;;;;;5.10;2.00;;;;;;;8.96;100.00;100440.16;4994012;28;20097;-68
2023/01/12 07:46:30;;;;;;;5.63;1.80;;;;;;;8.99;100.00;100455.09;4996593;28;20121;-68
2023/01/12 07:48:55;;;;;;;4.43;2.08;;;;;;;8.99;100.00;100455.09;4996668;28;20035;-68
2023/01/12 07:51:20;;;;;;;4.70;1.80;;;;;;;9.00;100.00;100438.47;4996380;28;20030;-68
2023/01/12 07:53:47;;;;;;;2.97;1.75;;;;;;;9.00;100.00;100457.78;4996398;28;20027;-68
2023/01/12 07:56:14;;;;;;;5.45;1.75;;;;;;;9.07;100.00;100453.44;4996483;28;20027;-68
2023/01/12 07:58:41;;;;;;;10.10;2.20;;;;;;;9.08;100.00;100464.88;4996462;28;20058;-68
2023/01/12 08:01:07;;;;;;;5.45;1.85;;;;;;;9.06;100.00;100445.53;4996327;28;20539;-67
2023/01/12 08:03:32;;;;;;;3.47;1.70;;;;;;;9.07;100.00;100450.81;4996436;28;20059;-69
2023/01/12 08:05:59;;;;;;;5.03;1.70;;;;;;;9.05;100.00;100468.38;4996569;28;20027;-68
2023/01/12 08:08:24;;;;;;;6.93;1.88;;;;;;;9.10;100.00;100448.22;4996248;28;20054;-68
2023/01/12 08:10:50;;;;;;;5.55;2.10;;;;;;;9.08;100.00;100470.13;4996178;28;20085;-68
2023/01/12 08:13:17;;;;;;;4.15;1.92;;;;;;;9.13;100.00;100460.56;4994832;28;20026;-68
2023/01/12 08:15:46;;;;;;;2.80;1.65;;;;;;;9.16;100.00;100461.44;4978657;28;20034;-68
2023/01/12 08:18:26;;;;;;;6.15;1.90;;;;;;;9.14;100.00;100468.47;4996074;28;20531;-68
2023/01/12 08:20:56;;;;;;;5.88;1.80;;;;;;;9.16;100.00;100471.97;4996157;28;20078;-68
2023/01/12 08:23:33;;;;;;;2.95;1.70;;;;;;;9.17;100.00;100462.34;4996074;28;20030;-68
2023/01/12 08:26:03;;;;;;;3.47;1.60;;;;;;;9.20;100.00;100480.81;4996094;28;20113;-69
2023/01/12 08:28:58;;;;;;;4.65;1.75;;;;;;;9.27;100.00;100485.28;4996523;28;20027;-68
2023/01/12 08:31:25;;;;;;;6.78;1.77;;;;;;;9.26;100.00;100473.00;4977031;28;20042;-69
2023/01/12 08:33:53;;;;;;;4.30;1.75;;;;;;;9.25;100.00;100489.69;4995804;28;20052;-68
2023/01/12 08:36:19;;;;;;;3.65;1.77;;;;;;;9.24;100.00;100483.50;4995543;28;20041;-68
2023/01/12 08:38:45;;;;;;;2.80;1.70;;;;;;;9.25;100.00;100477.38;4995501;28;20097;-69
2023/01/12 08:46:50;;;;;;;2.97;1.60;;;;;;;9.28;100.00;100485.28;4974379;28;20133;-68
2023/01/12 08:49:18;;;;;;;4.97;1.90;;;;;;;9.31;100.00;100507.31;4995764;28;20073;-68
2023/01/12 08:51:44;;;;;;;5.45;2.00;;;;;;;9.31;100.00;100516.09;4995487;28;20396;-68
2023/01/12 08:54:11;;;;;;;4.13;1.65;;;;;;;9.33;100.00;100497.66;4995632;28;20033;-68
2023/01/12 08:56:36;;;;;;;4.05;1.60;;;;;;;9.37;100.00;100500.31;4994144;28;20068;-68
2023/01/12 08:59:03;;;;;;;5.97;1.90;;;;;;;9.37;100.00;100504.72;4995343;28;20054;-67
2023/01/12 09:01:28;;;;;;;2.38;1.48;;;;;;;9.36;100.00;100521.41;4995196;28;20058;-68
2023/01/12 09:03:58;;;;;;;5.78;1.90;;;;;;;9.37;100.00;100520.53;4995201;28;20034;-67
2023/01/12 09:06:26;;;;;;;3.45;1.90;;;;;;;9.35;100.00;100515.25;4995187;28;20018;-68
2023/01/12 09:08:57;;;;;;;5.18;1.73;;;;;;;9.37;100.00;100518.78;4994924;28;20038;-68
2023/01/12 09:11:24;;;;;;;3.58;1.73;;;;;;;9.38;100.00;100523.22;4995161;28;20018;-68
2023/01/12 09:13:49;;;;;;;4.15;1.73;;;;;;;9.40;100.00;100531.13;4994945;28;20373;-68
2023/01/12 09:16:17;;;;;;;3.55;1.60;;;;;;;9.43;100.00;100534.69;4994908;28;20526;-68
2023/01/12 09:18:43;;;;;;;2.53;1.65;;;;;;;9.43;100.00;100539.97;4995171;28;20037;-68
2023/01/12 09:21:17;;;;;;;3.40;1.70;;;;;;;9.45;100.00;100540.84;4994848;28;20030;-68
2023/01/12 09:23:44;;;;;;;1.42;1.30;;;;;;;9.47;100.00;100546.16;4994838;28;20483;-67
2023/01/12 09:26:13;;;;;;;3.45;1.60;;;;;;;9.49;100.00;100533.84;4995034;28;20022;-68
2023/01/12 09:28:39;;;;;;;3.83;1.48;;;;;;;9.48;100.00;100538.25;4994777;28;20482;-68
2023/01/12 09:31:14;;;;;;;3.47;1.70;;;;;;;9.50;100.00;100547.03;4994942;28;20089;-68
2023/01/12 09:33:40;;;;;;;2.90;1.75;;;;;;;9.49;100.00;100547.03;4994705;28;20097;-68
2023/01/12 09:36:10;;;;;;;3.38;1.60;;;;;;;9.47;100.00;100539.13;4992643;28;20058;-69
2023/01/12 09:38:38;;;;;;;2.53;1.65;;;;;;;9.51;100.00;100526.88;4994570;28;20468;-68
2023/01/12 09:47:14;;;;;;;3.42;1.40;;;;;;;9.57;100.00;100550.66;4975225;28;20190;-68
2023/01/12 09:49:44;;;;;;;1.98;1.30;;;;;;;9.59;100.00;100545.38;4974934;28;20031;-68
2023/01/12 09:52:55;;;;;;;2.40;1.40;;;;;;;9.62;100.00;100550.69;4974895;28;20022;-68
2023/01/12 09:55:33;;;;;;;2.38;1.70;;;;;;;9.57;100.00;100541.84;4949611;28;20039;-68
2023/01/12 09:58:35;;;;;;;2.58;1.48;;;;;;;9.62;100.00;100567.41;4975063;28;20093;-69
2023/01/12 10:01:08;;;;;;;2.70;1.80;;;;;;;9.61;100.00;100564.75;4973506;28;20078;-68
2023/01/12 10:03:40;;;;;;;1.85;1.27;;;;;;;9.61;100.00;100562.13;4974844;28;20673;-68
2023/01/12 10:06:13;;;;;;;2.70;1.40;;;;;;;9.62;100.00;100564.75;4975029;28;20086;-68
2023/01/12 10:08:50;;;;;;;2.53;1.50;;;;;;;9.64;100.00;100578.00;4974329;28;20038;-69
2023/01/12 10:11:27;;;;;;;2.60;1.20;;;;;;;9.65;100.00;100569.19;4980410;28;20026;-70
2023/01/12 10:14:04;;;;;;;1.75;1.27;;;;;;;9.70;100.00;100578.91;5013607;28;20105;-68
2023/01/12 10:16:45;;;;;;;3.15;1.60;;;;;;;9.65;100.00;100579.75;5013571;28;20029;-68
2023/01/12 10:19:23;;;;;;;2.03;1.23;;;;;;;9.65;100.00;100572.72;5013354;28;20022;-68
2023/01/12 10:21:52;;;;;;;2.90;1.30;;;;;;;9.65;100.00;100577.09;4995824;28;20034;-69
2023/01/12 10:24:20;;;;;;;1.77;1.50;;;;;;;9.67;100.00;100572.72;5013402;28;20057;-69
2023/01/12 10:26:50;;;;;;;2.72;1.50;;;;;;;9.68;100.00;100566.59;5013283;28;20021;-68
2023/01/12 10:29:15;;;;;;;3.67;1.77;;;;;;;9.68;100.00;100569.25;5013168;28;20025;-69
2023/01/12 10:31:41;;;;;;;2.38;1.35;;;;;;;9.71;100.00;100567.47;5013115;28;20387;-69
2023/01/12 10:34:09;;;;;;;2.17;1.20;;;;;;;9.75;100.00;100571.03;5013401;28;20068;-70
2023/01/12 10:36:48;;;;;;;2.15;1.40;;;;;;;9.72;100.00;100569.28;4995426;28;20042;-69
2023/01/12 10:39:23;;;;;;;3.83;1.60;;;;;;;9.72;100.00;100573.63;5012887;28;20061;-68
2023/01/12 10:43:17;;;;;;;2.13;1.17;;;;;;;9.70;100.00;100556.94;5013145;28;20125;-69
2023/01/12 10:45:22;;;;;;;1.75;1.42;;;;;;;9.74;100.00;100574.56;5012672;28;20168;-69
2023/01/12 10:47:51;;;;;;;1.52;1.10;;;;;;;9.78;100.00;100577.25;5013432;28;20416;-70
2023/01/12 10:50:30;;;;;;;1.73;1.35;;;;;;;9.76;100.00;100573.72;5013120;28;20076;-69
2023/01/12 10:53:16;;;;;;;1.33;1.13;;;;;;;9.81;100.00;100565.84;5013136;28;20038;-71
2023/01/12 10:55:42;;;;;;;1.75;1.40;;;;;;;9.83;100.00;100561.44;5013161;28;20525;-71
2023/01/12 10:58:29;;;;;;;1.95;1.33;;;;;;;9.89;100.00;100565.88;5013215;28;20025;-69
2023/01/12 11:00:55;;;;;;;2.65;1.40;;;;;;;9.91;100.00;100565.03;5012928;28;20037;-69
2023/01/12 11:03:31;;;;;;;2.20;1.20;;;;;;;9.90;100.00;100559.75;5012917;28;20057;-71
2023/01/12 11:06:14;;;;;;;2.13;1.23;;;;;;;9.90;100.00;100563.28;5013265;28;20072;-71
2023/01/12 11:08:40;;;;;;;1.75;1.40;;;;;;;9.84;100.00;100555.28;5012943;28;20422;-69
2023/01/12 11:11:26;;;;;;;4.60;1.38;;;;;;;9.90;100.00;100567.69;5013060;28;20083;-70
2023/01/12 11:13:55;;;;;;;2.67;1.42;;;;;;;9.88;100.00;100566.75;5012830;28;20027;-69
2023/01/12 11:16:23;;;;;;;1.77;1.30;;;;;;;9.85;100.00;100566.72;5013090;28;20022;-70
2023/01/12 11:19:14;;;;;;;2.22;1.30;;;;;;;9.89;100.00;100560.59;5013130;28;20022;-69
2023/01/12 11:21:45;;;;;;;2.03;1.45;;;;;;;9.91;100.00;100556.25;5016818;28;20033;-71
2023/01/12 11:24:32;;;;;;;2.15;1.50;;;;;;;9.91;100.00;100565.03;5016836;28;20493;-70
2023/01/12 11:27:06;;;;;;;1.92;1.40;;;;;;;9.89;100.00;100561.53;5016446;28;20050;-70
2023/01/12 11:29:49;;;;;;;2.08;1.30;;;;;;;9.95;100.00;100550.13;5016438;28;20427;-71
2023/01/12 11:32:38;;;;;;;3.65;1.42;;;;;;;9.99;100.00;100565.13;5016548;28;20029;-71
2023/01/12 11:35:39;;;;;;;1.58;1.30;;;;;;;9.94;100.00;100551.88;4996067;28;20054;-70
2023/01/12 11:38:12;;;;;;;2.17;1.45;;;;;;;9.93;100.00;100551.84;5001192;28;20484;-70
2023/01/12 11:40:38;;;;;;;3.03;1.40;;;;;;;9.95;100.00;100551.00;4979384;28;20387;-70
2023/01/12 11:46:39;;;;;;;1.50;1.30;;;;;;;9.95;100.00;100558.03;4996817;28;20038;-70
2023/01/12 11:49:09;;;;;;;2.05;1.33;;;;;;;9.93;100.00;100552.72;4996572;28;20026;-70
2023/01/12 11:51:35;;;;;;;1.98;1.30;;;;;;;9.93;100.00;100544.81;4996462;28;20027;-70
2023/01/12 11:54:00;;;;;;;1.70;1.25;;;;;;;9.92;100.00;100548.31;4996470;28;20029;-69
2023/01/12 11:56:28;;;;;;;2.70;1.42;;;;;;;9.94;100.00;100553.63;4996595;28;20034;-70
2023/01/12 11:59:16;;;;;;;2.28;1.70;;;;;;;9.94;100.00;100541.31;4996568;28;20030;-69
2023/01/12 12:02:00;;;;;;;1.65;1.40;;;;;;;9.91;100.00;100541.28;4996346;28;20030;-70
2023/01/12 12:04:52;;;;;;;1.80;1.35;;;;;;;9.95;100.00;100544.84;4996316;28;20040;-69
2023/01/12 12:07:53;;;;;;;3.03;1.55;;;;;;;10.00;100.00;100537.84;4996312;28;20039;-71
2023/01/12 12:10:21;;;;;;;1.42;1.23;;;;;;;10.00;100.00;100528.16;4996232;28;20026;-71
2023/01/12 12:13:14;;;;;;;1.63;1.40;;;;;;;10.02;100.00;100529.06;4996406;28;20022;-70